sensor_id;sensor_type;location;lat;lon;timestamp;temperature;humidity
5009;DHT22;2523;51.058;6.922;2023-03-01T00:01:49;1.20;99.90
5009;DHT22;2523;51.058;6.922;2023-03-01T00:04:15;1.10;99.90
5009;DHT22;2523;51.058;6.922;2023-03-01T00:06:42;1.20;99.90
5009;DHT22;2523;51.058;6.922;2023-03-01T00:09:11;1.10;99.90
5009;DHT22;2523;51.058;6.922;2023-03-01T00:11:37;1.20;99.90
5009;DHT22;2523;51.058;6.922;2023-03-01T00:14:03;1.10;99.90
5009;DHT22;2523;51.058;6.922;2023-03-01T00:16:42;1.20;99.90
5009;DHT22;2523;51.058;6.922;2023-03-01T00:19:11;1.20;99.90
5009;DHT22;2523;51.058;6.922;2023-03-01T00:21:37;1.10;99.90
5009;DHT22;2523;51.058;6.922;2023-03-01T00:24:03;1.10;99.90
5009;DHT22;2523;51.058;6.922;2023-03-01T00:26:29;1.00;99.90
5009;DHT22;2523;51.058;6.922;2023-03-01T00:28:56;1.10;99.90
5009;DHT22;2523;51.058;6.922;2023-03-01T00:31:25;1.00;99.90
5009;DHT22;2523;51.058;6.922;2023-03-01T00:33:56;1.10;99.90
5009;DHT22;2523;51.058;6.922;2023-03-01T00:36:23;1.00;99.90
5009;DHT22;2523;51.058;6.922;2023-03-01T00:38:49;1.00;99.90
5009;DHT22;2523;51.058;6.922;2023-03-01T00:41:16;1.10;99.90
5009;DHT22;2523;51.058;6.922;2023-03-01T00:43:44;1.00;99.90
5009;DHT22;2523;51.058;6.922;2023-03-01T00:46:12;1.00;99.90
5009;DHT22;2523;51.058;6.922;2023-03-01T00:48:38;1.00;99.90
5009;DHT22;2523;51.058;6.922;2023-03-01T00:51:05;1.00;99.90
5009;DHT22;2523;51.058;6.922;2023-03-01T00:53:31;1.00;99.90
5009;DHT22;2523;51.058;6.922;2023-03-01T00:55:58;0.90;99.90
5009;DHT22;2523;51.058;6.922;2023-03-01T00:58:24;0.90;99.90
5009;DHT22;2523;51.058;6.922;2023-03-01T01:00:49;0.80;99.90
5009;DHT22;2523;51.058;6.922;2023-03-01T01:03:15;0.90;99.90
5009;DHT22;2523;51.058;6.922;2023-03-01T01:05:41;0.80;99.90
5009;DHT22;2523;51.058;6.922;2023-03-01T01:08:06;0.80;99.90
5009;DHT22;2523;51.058;6.922;2023-03-01T01:10:34;0.80;99.90
5009;DHT22;2523;51.058;6.922;2023-03-01T01:12:59;0.80;99.90
5009;DHT22;2523;51.058;6.922;2023-03-01T01:15:25;0.80;99.90
5009;DHT22;2523;51.058;6.922;2023-03-01T01:17:50;0.80;99.90
5009;DHT22;2523;51.058;6.922;2023-03-01T01:20:16;0.80;99.90
5009;DHT22;2523;51.058;6.922;2023-03-01T01:22:42;0.80;99.90
5009;DHT22;2523;51.058;6.922;2023-03-01T01:25:07;0.70;99.90
5009;DHT22;2523;51.058;6.922;2023-03-01T01:27:33;0.70;99.90
5009;DHT22;2523;51.058;6.922;2023-03-01T01:29:59;0.70;99.90
5009;DHT22;2523;51.058;6.922;2023-03-01T01:32:24;0.70;99.90
5009;DHT22;2523;51.058;6.922;2023-03-01T01:34:50;0.70;99.90
5009;DHT22;2523;51.058;6.922;2023-03-01T01:37:15;0.70;99.90
5009;DHT22;2523;51.058;6.922;2023-03-01T01:39:41;0.70;99.90
5009;DHT22;2523;51.058;6.922;2023-03-01T01:42:16;0.60;99.90
5009;DHT22;2523;51.058;6.922;2023-03-01T01:44:44;0.60;99.90
5009;DHT22;2523;51.058;6.922;2023-03-01T01:47:16;0.60;99.90
5009;DHT22;2523;51.058;6.922;2023-03-01T01:49:47;0.60;99.90
5009;DHT22;2523;51.058;6.922;2023-03-01T01:52:20;0.50;99.90
5009;DHT22;2523;51.058;6.922;2023-03-01T01:55:00;0.50;99.90
5009;DHT22;2523;51.058;6.922;2023-03-01T01:57:43;0.50;99.90
5009;DHT22;2523;51.058;6.922;2023-03-01T02:00:22;0.50;99.90
5009;DHT22;2523;51.058;6.922;2023-03-01T02:02:50;0.50;99.90
5009;DHT22;2523;51.058;6.922;2023-03-01T02:08:18;0.50;99.90
5009;DHT22;2523;51.058;6.922;2023-03-01T02:10:45;0.50;99.90
5009;DHT22;2523;51.058;6.922;2023-03-01T02:13:12;0.50;99.90
5009;DHT22;2523;51.058;6.922;2023-03-01T02:15:39;0.40;99.90
5009;DHT22;2523;51.058;6.922;2023-03-01T02:18:07;0.40;99.90
5009;DHT22;2523;51.058;6.922;2023-03-01T02:23:08;0.30;99.90
5009;DHT22;2523;51.058;6.922;2023-03-01T02:25:43;0.30;99.90
5009;DHT22;2523;51.058;6.922;2023-03-01T02:30:43;0.30;99.90
5009;DHT22;2523;51.058;6.922;2023-03-01T02:33:29;0.20;99.90
5009;DHT22;2523;51.058;6.922;2023-03-01T02:36:00;0.20;99.90
5009;DHT22;2523;51.058;6.922;2023-03-01T02:38:26;0.20;99.90
5009;DHT22;2523;51.058;6.922;2023-03-01T02:40:54;0.20;99.90
5009;DHT22;2523;51.058;6.922;2023-03-01T02:43:21;0.20;99.90
5009;DHT22;2523;51.058;6.922;2023-03-01T02:45:49;0.20;99.90
5009;DHT22;2523;51.058;6.922;2023-03-01T02:48:15;0.10;99.90
5009;DHT22;2523;51.058;6.922;2023-03-01T02:50:47;0.10;99.90
5009;DHT22;2523;51.058;6.922;2023-03-01T02:54:01;0.00;99.90
5009;DHT22;2523;51.058;6.922;2023-03-01T02:56:31;0.00;99.90
5009;DHT22;2523;51.058;6.922;2023-03-01T02:58:57;0.00;99.90
5009;DHT22;2523;51.058;6.922;2023-03-01T03:01:26;0.00;99.90
5009;DHT22;2523;51.058;6.922;2023-03-01T03:04:03;0.10;99.90
5009;DHT22;2523;51.058;6.922;2023-03-01T03:06:28;0.10;99.90
5009;DHT22;2523;51.058;6.922;2023-03-01T03:08:54;0.10;99.90
5009;DHT22;2523;51.058;6.922;2023-03-01T03:11:20;0.10;99.90
5009;DHT22;2523;51.058;6.922;2023-03-01T03:13:46;0.10;99.90
5009;DHT22;2523;51.058;6.922;2023-03-01T03:16:13;0.10;99.90
5009;DHT22;2523;51.058;6.922;2023-03-01T03:18:39;0.10;99.90
5009;DHT22;2523;51.058;6.922;2023-03-01T03:21:08;0.10;99.90
5009;DHT22;2523;51.058;6.922;2023-03-01T03:23:35;0.00;99.90
5009;DHT22;2523;51.058;6.922;2023-03-01T03:26:02;0.00;99.90
5009;DHT22;2523;51.058;6.922;2023-03-01T03:28:30;0.00;99.90
5009;DHT22;2523;51.058;6.922;2023-03-01T03:30:56;0.00;99.90
5009;DHT22;2523;51.058;6.922;2023-03-01T03:33:22;0.00;99.90
5009;DHT22;2523;51.058;6.922;2023-03-01T03:35:48;0.00;99.90
5009;DHT22;2523;51.058;6.922;2023-03-01T03:38:16;0.00;99.90
5009;DHT22;2523;51.058;6.922;2023-03-01T03:40:47;0.00;99.90
5009;DHT22;2523;51.058;6.922;2023-03-01T03:43:21;-0.10;99.90
5009;DHT22;2523;51.058;6.922;2023-03-01T03:45:48;-0.10;99.90
5009;DHT22;2523;51.058;6.922;2023-03-01T03:48:14;-0.10;99.90
5009;DHT22;2523;51.058;6.922;2023-03-01T03:50:41;-0.10;99.90
5009;DHT22;2523;51.058;6.922;2023-03-01T03:53:09;-0.10;99.90
5009;DHT22;2523;51.058;6.922;2023-03-01T03:55:35;-0.10;99.90
5009;DHT22;2523;51.058;6.922;2023-03-01T03:58:05;-0.10;99.90
5009;DHT22;2523;51.058;6.922;2023-03-01T04:00:39;-0.10;99.90
5009;DHT22;2523;51.058;6.922;2023-03-01T04:03:06;-0.10;99.90
5009;DHT22;2523;51.058;6.922;2023-03-01T04:05:32;-0.10;99.90
5009;DHT22;2523;51.058;6.922;2023-03-01T04:07:58;-0.10;99.90
5009;DHT22;2523;51.058;6.922;2023-03-01T04:10:28;-0.10;99.90
5009;DHT22;2523;51.058;6.922;2023-03-01T04:12:54;-0.10;99.90
5009;DHT22;2523;51.058;6.922;2023-03-01T04:15:21;-0.10;99.90
5009;DHT22;2523;51.058;6.922;2023-03-01T04:17:50;-0.10;99.90
5009;DHT22;2523;51.058;6.922;2023-03-01T04:20:20;0.00;99.90
5009;DHT22;2523;51.058;6.922;2023-03-01T04:22:57;-0.10;99.90
5009;DHT22;2523;51.058;6.922;2023-03-01T04:25:24;-0.20;99.90
5009;DHT22;2523;51.058;6.922;2023-03-01T04:27:49;-0.20;99.90
5009;DHT22;2523;51.058;6.922;2023-03-01T04:30:15;-0.20;99.90
5009;DHT22;2523;51.058;6.922;2023-03-01T04:32:41;-0.20;99.90
5009;DHT22;2523;51.058;6.922;2023-03-01T04:35:07;-0.20;99.90
5009;DHT22;2523;51.058;6.922;2023-03-01T04:37:32;-0.20;99.90
5009;DHT22;2523;51.058;6.922;2023-03-01T04:39:58;-0.20;99.90
5009;DHT22;2523;51.058;6.922;2023-03-01T04:42:24;-0.30;99.90
5009;DHT22;2523;51.058;6.922;2023-03-01T04:44:49;-0.30;99.90
5009;DHT22;2523;51.058;6.922;2023-03-01T04:47:16;-0.30;99.90
5009;DHT22;2523;51.058;6.922;2023-03-01T04:49:42;-0.30;99.90
5009;DHT22;2523;51.058;6.922;2023-03-01T04:52:08;-0.30;99.90
5009;DHT22;2523;51.058;6.922;2023-03-01T04:54:35;-0.20;99.90
5009;DHT22;2523;51.058;6.922;2023-03-01T04:57:01;-0.30;99.90
5009;DHT22;2523;51.058;6.922;2023-03-01T04:59:27;-0.30;99.90
5009;DHT22;2523;51.058;6.922;2023-03-01T05:01:53;-0.30;99.90
5009;DHT22;2523;51.058;6.922;2023-03-01T05:04:23;-0.30;99.90
5009;DHT22;2523;51.058;6.922;2023-03-01T05:06:49;-0.20;99.90
5009;DHT22;2523;51.058;6.922;2023-03-01T05:09:15;-0.20;99.90
5009;DHT22;2523;51.058;6.922;2023-03-01T05:11:40;-0.30;99.90
5009;DHT22;2523;51.058;6.922;2023-03-01T05:14:07;-0.30;99.90
5009;DHT22;2523;51.058;6.922;2023-03-01T05:16:33;-0.30;99.90
5009;DHT22;2523;51.058;6.922;2023-03-01T05:18:58;-0.30;99.90
5009;DHT22;2523;51.058;6.922;2023-03-01T05:21:25;-0.30;99.90
5009;DHT22;2523;51.058;6.922;2023-03-01T05:23:50;-0.30;99.90
5009;DHT22;2523;51.058;6.922;2023-03-01T05:26:18;-0.30;99.90
5009;DHT22;2523;51.058;6.922;2023-03-01T05:28:44;-0.40;99.90
5009;DHT22;2523;51.058;6.922;2023-03-01T05:31:10;-0.50;99.90
5009;DHT22;2523;51.058;6.922;2023-03-01T05:33:40;-0.50;99.90
5009;DHT22;2523;51.058;6.922;2023-03-01T05:36:07;-0.50;99.90
5009;DHT22;2523;51.058;6.922;2023-03-01T05:38:33;-0.60;99.90
5009;DHT22;2523;51.058;6.922;2023-03-01T05:40:59;-0.60;99.90
5009;DHT22;2523;51.058;6.922;2023-03-01T05:43:24;-0.60;99.90
5009;DHT22;2523;51.058;6.922;2023-03-01T05:45:50;-0.60;99.90
5009;DHT22;2523;51.058;6.922;2023-03-01T05:48:16;-0.70;99.90
5009;DHT22;2523;51.058;6.922;2023-03-01T05:50:45;-0.70;99.90
5009;DHT22;2523;51.058;6.922;2023-03-01T05:53:17;-0.70;99.90
5009;DHT22;2523;51.058;6.922;2023-03-01T05:55:44;-0.70;99.90
5009;DHT22;2523;51.058;6.922;2023-03-01T05:58:13;-0.80;99.90
5009;DHT22;2523;51.058;6.922;2023-03-01T06:00:41;-0.70;99.90
5009;DHT22;2523;51.058;6.922;2023-03-01T06:03:08;-0.70;99.90
5009;DHT22;2523;51.058;6.922;2023-03-01T06:05:34;-0.70;99.90
5009;DHT22;2523;51.058;6.922;2023-03-01T06:08:00;-0.70;99.90
5009;DHT22;2523;51.058;6.922;2023-03-01T06:10:25;-0.70;99.90
5009;DHT22;2523;51.058;6.922;2023-03-01T06:12:51;-0.70;99.90
5009;DHT22;2523;51.058;6.922;2023-03-01T06:15:17;-0.60;99.90
5009;DHT22;2523;51.058;6.922;2023-03-01T06:17:45;-0.60;99.90
5009;DHT22;2523;51.058;6.922;2023-03-01T06:22:42;-0.60;99.90
5009;DHT22;2523;51.058;6.922;2023-03-01T06:25:08;-0.50;99.90
5009;DHT22;2523;51.058;6.922;2023-03-01T06:27:34;-0.60;99.90
5009;DHT22;2523;51.058;6.922;2023-03-01T06:30:00;-0.60;99.90
5009;DHT22;2523;51.058;6.922;2023-03-01T06:32:25;-0.60;99.90
5009;DHT22;2523;51.058;6.922;2023-03-01T06:34:51;-0.50;99.90
5009;DHT22;2523;51.058;6.922;2023-03-01T06:37:17;-0.60;99.90
5009;DHT22;2523;51.058;6.922;2023-03-01T06:39:42;-0.60;99.90
5009;DHT22;2523;51.058;6.922;2023-03-01T06:42:09;-0.50;99.90
5009;DHT22;2523;51.058;6.922;2023-03-01T06:44:35;-0.50;99.90
5009;DHT22;2523;51.058;6.922;2023-03-01T06:47:01;-0.50;99.90
5009;DHT22;2523;51.058;6.922;2023-03-01T06:49:27;-0.50;99.90
5009;DHT22;2523;51.058;6.922;2023-03-01T06:51:52;-0.40;99.90
5009;DHT22;2523;51.058;6.922;2023-03-01T06:54:18;-0.30;99.90
5009;DHT22;2523;51.058;6.922;2023-03-01T06:56:46;-0.20;99.90
5009;DHT22;2523;51.058;6.922;2023-03-01T06:59:12;-0.30;99.90
5009;DHT22;2523;51.058;6.922;2023-03-01T07:01:38;-0.30;99.90
5009;DHT22;2523;51.058;6.922;2023-03-01T07:04:04;-0.20;99.90
5009;DHT22;2523;51.058;6.922;2023-03-01T07:06:30;-0.20;99.90
5009;DHT22;2523;51.058;6.922;2023-03-01T07:08:55;-0.20;99.90
5009;DHT22;2523;51.058;6.922;2023-03-01T07:11:22;-0.10;99.90
5009;DHT22;2523;51.058;6.922;2023-03-01T07:13:47;-0.10;99.90
5009;DHT22;2523;51.058;6.922;2023-03-01T07:16:13;0.00;99.90
5009;DHT22;2523;51.058;6.922;2023-03-01T07:18:40;0.00;99.90
5009;DHT22;2523;51.058;6.922;2023-03-01T07:21:11;0.00;99.90
5009;DHT22;2523;51.058;6.922;2023-03-01T07:23:37;0.10;99.90
5009;DHT22;2523;51.058;6.922;2023-03-01T07:26:02;0.00;99.90
5009;DHT22;2523;51.058;6.922;2023-03-01T07:28:28;0.00;99.90
5009;DHT22;2523;51.058;6.922;2023-03-01T07:30:54;0.10;99.90
5009;DHT22;2523;51.058;6.922;2023-03-01T07:33:20;0.20;99.90
5009;DHT22;2523;51.058;6.922;2023-03-01T07:35:46;0.20;99.90
5009;DHT22;2523;51.058;6.922;2023-03-01T07:38:11;0.30;99.90
5009;DHT22;2523;51.058;6.922;2023-03-01T07:40:37;0.40;99.90
5009;DHT22;2523;51.058;6.922;2023-03-01T07:43:02;0.50;99.90
5009;DHT22;2523;51.058;6.922;2023-03-01T07:45:28;0.60;99.90
5009;DHT22;2523;51.058;6.922;2023-03-01T07:47:55;0.70;99.90
5009;DHT22;2523;51.058;6.922;2023-03-01T07:50:21;0.70;99.90
5009;DHT22;2523;51.058;6.922;2023-03-01T07:52:48;0.70;99.90
5009;DHT22;2523;51.058;6.922;2023-03-01T07:55:17;0.80;99.90
5009;DHT22;2523;51.058;6.922;2023-03-01T07:57:43;0.90;99.90
5009;DHT22;2523;51.058;6.922;2023-03-01T08:00:10;1.00;99.90
5009;DHT22;2523;51.058;6.922;2023-03-01T08:02:36;1.10;99.90
5009;DHT22;2523;51.058;6.922;2023-03-01T08:05:02;1.20;99.90
5009;DHT22;2523;51.058;6.922;2023-03-01T08:07:27;1.30;99.90
5009;DHT22;2523;51.058;6.922;2023-03-01T08:09:53;1.40;99.90
5009;DHT22;2523;51.058;6.922;2023-03-01T08:12:19;1.50;99.90
5009;DHT22;2523;51.058;6.922;2023-03-01T08:14:44;1.50;99.90
5009;DHT22;2523;51.058;6.922;2023-03-01T08:17:10;1.60;99.90
5009;DHT22;2523;51.058;6.922;2023-03-01T08:19:35;1.70;99.90
5009;DHT22;2523;51.058;6.922;2023-03-01T08:22:02;1.80;99.90
5009;DHT22;2523;51.058;6.922;2023-03-01T08:24:28;1.90;99.90
5009;DHT22;2523;51.058;6.922;2023-03-01T08:26:54;2.10;99.90
5009;DHT22;2523;51.058;6.922;2023-03-01T08:29:20;2.20;99.90
5009;DHT22;2523;51.058;6.922;2023-03-01T08:31:46;2.20;99.90
5009;DHT22;2523;51.058;6.922;2023-03-01T08:34:14;2.30;99.90
5009;DHT22;2523;51.058;6.922;2023-03-01T08:36:44;2.40;99.90
5009;DHT22;2523;51.058;6.922;2023-03-01T08:39:12;2.60;99.90
5009;DHT22;2523;51.058;6.922;2023-03-01T08:41:38;2.70;99.90
5009;DHT22;2523;51.058;6.922;2023-03-01T08:44:04;2.80;99.30
5009;DHT22;2523;51.058;6.922;2023-03-01T08:46:35;2.90;99.30
5009;DHT22;2523;51.058;6.922;2023-03-01T08:49:04;3.10;96.60
5009;DHT22;2523;51.058;6.922;2023-03-01T08:51:30;3.30;96.10
5009;DHT22;2523;51.058;6.922;2023-03-01T08:53:57;3.50;95.70
5009;DHT22;2523;51.058;6.922;2023-03-01T08:56:23;3.60;94.20
5009;DHT22;2523;51.058;6.922;2023-03-01T08:58:50;3.80;92.10
5009;DHT22;2523;51.058;6.922;2023-03-01T09:01:18;3.90;89.00
5009;DHT22;2523;51.058;6.922;2023-03-01T09:03:44;4.00;80.90
5009;DHT22;2523;51.058;6.922;2023-03-01T09:06:11;4.10;76.80
5009;DHT22;2523;51.058;6.922;2023-03-01T09:08:38;4.30;81.40
5009;DHT22;2523;51.058;6.922;2023-03-01T09:11:07;4.50;78.90
5009;DHT22;2523;51.058;6.922;2023-03-01T09:13:33;4.50;76.50
5009;DHT22;2523;51.058;6.922;2023-03-01T09:16:00;4.70;81.00
5009;DHT22;2523;51.058;6.922;2023-03-01T09:18:26;5.00;84.60
5009;DHT22;2523;51.058;6.922;2023-03-01T09:20:52;5.10;82.50
5009;DHT22;2523;51.058;6.922;2023-03-01T09:23:20;5.20;82.30
5009;DHT22;2523;51.058;6.922;2023-03-01T09:25:46;5.30;82.50
5009;DHT22;2523;51.058;6.922;2023-03-01T09:28:12;5.60;85.70
5009;DHT22;2523;51.058;6.922;2023-03-01T09:30:37;5.80;88.30
5009;DHT22;2523;51.058;6.922;2023-03-01T09:33:03;6.00;89.10
5009;DHT22;2523;51.058;6.922;2023-03-01T09:35:28;6.20;90.80
5009;DHT22;2523;51.058;6.922;2023-03-01T09:37:54;6.30;90.70
5009;DHT22;2523;51.058;6.922;2023-03-01T09:40:23;6.40;92.70
5009;DHT22;2523;51.058;6.922;2023-03-01T09:43:08;6.60;93.90
5009;DHT22;2523;51.058;6.922;2023-03-01T09:45:43;6.90;94.90
5009;DHT22;2523;51.058;6.922;2023-03-01T09:48:16;7.10;96.80
5009;DHT22;2523;51.058;6.922;2023-03-01T09:50:43;7.20;96.60
5009;DHT22;2523;51.058;6.922;2023-03-01T09:53:21;7.50;99.20
5009;DHT22;2523;51.058;6.922;2023-03-01T09:56:12;7.50;99.00
5009;DHT22;2523;51.058;6.922;2023-03-01T09:59:10;8.20;99.90
5009;DHT22;2523;51.058;6.922;2023-03-01T10:01:48;8.20;99.90
5009;DHT22;2523;51.058;6.922;2023-03-01T10:07:17;8.70;99.90
5009;DHT22;2523;51.058;6.922;2023-03-01T10:09:47;9.10;99.90
5009;DHT22;2523;51.058;6.922;2023-03-01T10:12:16;9.50;99.90
5009;DHT22;2523;51.058;6.922;2023-03-01T10:15:30;9.50;99.90
5009;DHT22;2523;51.058;6.922;2023-03-01T10:17:56;9.70;99.90
5009;DHT22;2523;51.058;6.922;2023-03-01T10:20:33;8.90;99.90
5009;DHT22;2523;51.058;6.922;2023-03-01T10:23:02;9.30;99.90
5009;DHT22;2523;51.058;6.922;2023-03-01T10:25:55;9.70;99.90
5009;DHT22;2523;51.058;6.922;2023-03-01T10:28:31;10.30;99.90
5009;DHT22;2523;51.058;6.922;2023-03-01T10:31:00;9.90;99.90
5009;DHT22;2523;51.058;6.922;2023-03-01T10:33:44;10.30;99.90
5009;DHT22;2523;51.058;6.922;2023-03-01T10:36:09;10.60;99.90
5009;DHT22;2523;51.058;6.922;2023-03-01T10:38:56;9.30;99.90
5009;DHT22;2523;51.058;6.922;2023-03-01T10:41:24;9.10;99.90
5009;DHT22;2523;51.058;6.922;2023-03-01T10:43:53;10.00;99.90
5009;DHT22;2523;51.058;6.922;2023-03-01T10:46:33;10.50;99.90
5009;DHT22;2523;51.058;6.922;2023-03-01T10:49:18;10.60;99.90
5009;DHT22;2523;51.058;6.922;2023-03-01T10:51:47;11.00;99.90
5009;DHT22;2523;51.058;6.922;2023-03-01T10:54:30;11.70;99.90
5009;DHT22;2523;51.058;6.922;2023-03-01T10:56:58;11.80;99.90
5009;DHT22;2523;51.058;6.922;2023-03-01T10:59:33;12.00;99.90
5009;DHT22;2523;51.058;6.922;2023-03-01T11:02:23;12.30;99.90
5009;DHT22;2523;51.058;6.922;2023-03-01T11:05:01;13.00;99.90
5009;DHT22;2523;51.058;6.922;2023-03-01T11:07:27;13.00;99.90
5009;DHT22;2523;51.058;6.922;2023-03-01T11:09:53;12.30;99.90
5009;DHT22;2523;51.058;6.922;2023-03-01T11:12:20;13.10;99.90
5009;DHT22;2523;51.058;6.922;2023-03-01T11:14:55;13.60;99.90
5009;DHT22;2523;51.058;6.922;2023-03-01T11:17:25;13.70;99.90
5009;DHT22;2523;51.058;6.922;2023-03-01T11:20:20;14.00;99.90
5009;DHT22;2523;51.058;6.922;2023-03-01T11:22:54;13.10;99.90
5009;DHT22;2523;51.058;6.922;2023-03-01T11:25:28;13.70;99.90
5009;DHT22;2523;51.058;6.922;2023-03-01T11:27:57;13.90;99.90
5009;DHT22;2523;51.058;6.922;2023-03-01T11:30:39;13.80;99.90
5009;DHT22;2523;51.058;6.922;2023-03-01T11:36:29;13.90;99.90
5009;DHT22;2523;51.058;6.922;2023-03-01T11:38:57;14.40;99.90
5009;DHT22;2523;51.058;6.922;2023-03-01T11:41:31;14.70;99.90
5009;DHT22;2523;51.058;6.922;2023-03-01T11:44:10;15.20;99.90
5009;DHT22;2523;51.058;6.922;2023-03-01T11:57:39;17.70;99.90
5009;DHT22;2523;51.058;6.922;2023-03-01T12:00:31;18.50;99.90
5009;DHT22;2523;51.058;6.922;2023-03-01T12:03:16;18.80;99.90
5009;DHT22;2523;51.058;6.922;2023-03-01T12:14:09;18.70;99.90
5009;DHT22;2523;51.058;6.922;2023-03-01T12:17:00;19.10;99.90
5009;DHT22;2523;51.058;6.922;2023-03-01T12:22:28;20.60;99.90
5009;DHT22;2523;51.058;6.922;2023-03-01T12:25:34;20.20;99.90
5009;DHT22;2523;51.058;6.922;2023-03-01T12:28:40;20.30;99.90
5009;DHT22;2523;51.058;6.922;2023-03-01T12:31:20;21.10;99.90
5009;DHT22;2523;51.058;6.922;2023-03-01T12:33:55;21.70;99.90
5009;DHT22;2523;51.058;6.922;2023-03-01T12:39:21;22.30;99.90
5009;DHT22;2523;51.058;6.922;2023-03-01T12:42:08;22.30;99.90
5009;DHT22;2523;51.058;6.922;2023-03-01T12:45:00;22.20;99.90
5009;DHT22;2523;51.058;6.922;2023-03-01T12:51:29;22.80;99.90
5009;DHT22;2523;51.058;6.922;2023-03-01T12:53:41;23.00;99.90
5009;DHT22;2523;51.058;6.922;2023-03-01T12:56:13;22.90;99.90
5009;DHT22;2523;51.058;6.922;2023-03-01T13:01:39;21.70;99.90
5009;DHT22;2523;51.058;6.922;2023-03-01T13:04:23;22.20;99.90
5009;DHT22;2523;51.058;6.922;2023-03-01T13:09:49;21.20;99.90
5009;DHT22;2523;51.058;6.922;2023-03-01T13:17:49;19.50;99.90
5009;DHT22;2523;51.058;6.922;2023-03-01T13:20:17;19.80;99.90
5009;DHT22;2523;51.058;6.922;2023-03-01T13:22:45;18.10;99.90
5009;DHT22;2523;51.058;6.922;2023-03-01T13:25:17;16.80;99.90
5009;DHT22;2523;51.058;6.922;2023-03-01T13:27:44;16.80;99.90
5009;DHT22;2523;51.058;6.922;2023-03-01T13:35:55;17.00;99.90
5009;DHT22;2523;51.058;6.922;2023-03-01T13:41:14;16.90;99.90
5009;DHT22;2523;51.058;6.922;2023-03-01T13:43:42;16.00;99.90
5009;DHT22;2523;51.058;6.922;2023-03-01T13:46:21;15.70;99.90
5009;DHT22;2523;51.058;6.922;2023-03-01T13:48:54;15.60;99.90
5009;DHT22;2523;51.058;6.922;2023-03-01T13:51:23;15.20;99.90
5009;DHT22;2523;51.058;6.922;2023-03-01T13:53:51;15.20;99.90
5009;DHT22;2523;51.058;6.922;2023-03-01T13:56:26;14.90;99.90
5009;DHT22;2523;51.058;6.922;2023-03-01T13:59:19;14.60;99.90
5009;DHT22;2523;51.058;6.922;2023-03-01T14:01:55;14.10;99.90
5009;DHT22;2523;51.058;6.922;2023-03-01T14:04:32;13.30;99.90
5009;DHT22;2523;51.058;6.922;2023-03-01T14:07:10;13.40;99.90
5009;DHT22;2523;51.058;6.922;2023-03-01T14:09:40;13.50;99.90
5009;DHT22;2523;51.058;6.922;2023-03-01T14:15:22;13.10;99.90
5009;DHT22;2523;51.058;6.922;2023-03-01T14:18:13;12.90;99.90
5009;DHT22;2523;51.058;6.922;2023-03-01T14:20:44;13.20;99.90
5009;DHT22;2523;51.058;6.922;2023-03-01T14:23:19;13.60;99.90
5009;DHT22;2523;51.058;6.922;2023-03-01T14:25:49;13.40;99.90
5009;DHT22;2523;51.058;6.922;2023-03-01T14:28:18;13.20;99.90
5009;DHT22;2523;51.058;6.922;2023-03-01T14:30:59;12.60;99.90
5009;DHT22;2523;51.058;6.922;2023-03-01T14:33:34;12.30;99.90
5009;DHT22;2523;51.058;6.922;2023-03-01T14:36:07;12.10;99.90
5009;DHT22;2523;51.058;6.922;2023-03-01T14:38:44;11.90;99.90
5009;DHT22;2523;51.058;6.922;2023-03-01T14:41:22;11.60;99.90
5009;DHT22;2523;51.058;6.922;2023-03-01T14:43:55;11.80;99.90
5009;DHT22;2523;51.058;6.922;2023-03-01T14:46:24;11.70;99.90
5009;DHT22;2523;51.058;6.922;2023-03-01T14:49:19;11.40;99.90
5009;DHT22;2523;51.058;6.922;2023-03-01T14:52:02;11.30;99.90
5009;DHT22;2523;51.058;6.922;2023-03-01T14:57:01;11.30;99.90
5009;DHT22;2523;51.058;6.922;2023-03-01T14:59:27;10.60;99.90
5009;DHT22;2523;51.058;6.922;2023-03-01T15:01:55;10.40;99.90
5009;DHT22;2523;51.058;6.922;2023-03-01T15:04:23;10.40;99.90
5009;DHT22;2523;51.058;6.922;2023-03-01T15:06:54;10.50;99.90
5009;DHT22;2523;51.058;6.922;2023-03-01T15:09:21;10.20;99.90
5009;DHT22;2523;51.058;6.922;2023-03-01T15:11:47;10.10;99.90
5009;DHT22;2523;51.058;6.922;2023-03-01T15:17:30;10.10;99.90
5009;DHT22;2523;51.058;6.922;2023-03-01T15:19:57;10.40;99.90
5009;DHT22;2523;51.058;6.922;2023-03-01T15:22:25;10.00;99.90
5009;DHT22;2523;51.058;6.922;2023-03-01T15:24:52;9.70;99.90
5009;DHT22;2523;51.058;6.922;2023-03-01T15:27:21;9.50;99.90
5009;DHT22;2523;51.058;6.922;2023-03-01T15:29:58;9.30;99.90
5009;DHT22;2523;51.058;6.922;2023-03-01T15:32:32;9.10;99.90
5009;DHT22;2523;51.058;6.922;2023-03-01T15:34:59;9.00;99.90
5009;DHT22;2523;51.058;6.922;2023-03-01T15:40:27;9.00;99.90
5009;DHT22;2523;51.058;6.922;2023-03-01T15:43:04;8.90;99.80
5009;DHT22;2523;51.058;6.922;2023-03-01T15:45:34;9.00;99.90
5009;DHT22;2523;51.058;6.922;2023-03-01T15:48:17;9.00;99.90
5009;DHT22;2523;51.058;6.922;2023-03-01T15:50:44;8.90;99.80
5009;DHT22;2523;51.058;6.922;2023-03-01T15:53:13;9.00;99.90
5009;DHT22;2523;51.058;6.922;2023-03-01T15:55:40;9.10;99.90
5009;DHT22;2523;51.058;6.922;2023-03-01T16:00:44;9.20;99.90
5009;DHT22;2523;51.058;6.922;2023-03-01T16:03:11;9.20;99.90
5009;DHT22;2523;51.058;6.922;2023-03-01T16:05:37;9.10;99.90
5009;DHT22;2523;51.058;6.922;2023-03-01T16:08:04;9.10;99.90
5009;DHT22;2523;51.058;6.922;2023-03-01T16:10:34;8.90;99.40
5009;DHT22;2523;51.058;6.922;2023-03-01T16:13:00;8.70;98.30
5009;DHT22;2523;51.058;6.922;2023-03-01T16:15:28;8.70;97.50
5009;DHT22;2523;51.058;6.922;2023-03-01T16:17:54;8.50;96.20
5009;DHT22;2523;51.058;6.922;2023-03-01T16:20:20;8.40;94.80
5009;DHT22;2523;51.058;6.922;2023-03-01T16:22:46;8.30;94.20
5009;DHT22;2523;51.058;6.922;2023-03-01T16:25:17;8.30;94.00
5009;DHT22;2523;51.058;6.922;2023-03-01T16:27:48;8.20;92.80
5009;DHT22;2523;51.058;6.922;2023-03-01T16:30:15;8.10;93.00
5009;DHT22;2523;51.058;6.922;2023-03-01T16:32:44;8.10;91.70
5009;DHT22;2523;51.058;6.922;2023-03-01T16:35:12;7.90;90.70
5009;DHT22;2523;51.058;6.922;2023-03-01T16:37:37;7.90;90.10
5009;DHT22;2523;51.058;6.922;2023-03-01T16:40:05;7.80;90.00
5009;DHT22;2523;51.058;6.922;2023-03-01T16:42:34;7.70;88.50
5009;DHT22;2523;51.058;6.922;2023-03-01T16:45:00;7.50;84.20
5009;DHT22;2523;51.058;6.922;2023-03-01T16:47:27;7.50;83.90
5009;DHT22;2523;51.058;6.922;2023-03-01T16:49:53;7.40;81.70
5009;DHT22;2523;51.058;6.922;2023-03-01T16:52:19;7.30;80.10
5009;DHT22;2523;51.058;6.922;2023-03-01T16:54:45;7.30;79.50
5009;DHT22;2523;51.058;6.922;2023-03-01T16:57:10;7.20;78.50
5009;DHT22;2523;51.058;6.922;2023-03-01T16:59:36;7.10;76.00
5009;DHT22;2523;51.058;6.922;2023-03-01T17:02:03;7.10;75.10
5009;DHT22;2523;51.058;6.922;2023-03-01T17:04:28;7.10;75.50
5009;DHT22;2523;51.058;6.922;2023-03-01T17:06:54;7.00;74.50
5009;DHT22;2523;51.058;6.922;2023-03-01T17:09:19;7.00;73.90
5009;DHT22;2523;51.058;6.922;2023-03-01T17:11:50;6.90;72.50
5009;DHT22;2523;51.058;6.922;2023-03-01T17:14:16;6.80;71.10
5009;DHT22;2523;51.058;6.922;2023-03-01T17:16:42;6.70;69.70
5009;DHT22;2523;51.058;6.922;2023-03-01T17:19:08;6.60;67.30
5009;DHT22;2523;51.058;6.922;2023-03-01T17:21:34;6.50;66.20
5009;DHT22;2523;51.058;6.922;2023-03-01T17:24:00;6.50;64.40
5009;DHT22;2523;51.058;6.922;2023-03-01T17:26:26;6.40;63.50
5009;DHT22;2523;51.058;6.922;2023-03-01T17:28:54;6.30;62.30
5009;DHT22;2523;51.058;6.922;2023-03-01T17:31:21;6.20;60.90
5009;DHT22;2523;51.058;6.922;2023-03-01T17:33:47;6.20;61.90
5009;DHT22;2523;51.058;6.922;2023-03-01T17:36:14;6.20;60.30
5009;DHT22;2523;51.058;6.922;2023-03-01T17:38:40;6.20;60.20
5009;DHT22;2523;51.058;6.922;2023-03-01T17:41:05;6.10;59.10
5009;DHT22;2523;51.058;6.922;2023-03-01T17:43:31;6.10;59.50
5009;DHT22;2523;51.058;6.922;2023-03-01T17:45:58;6.00;58.40